createdAt,value
2018-12-30T08:05:45.877Z,83.49
2018-12-30T08:08:38.941Z,83.61
2018-12-30T08:11:28.986Z,83.67
2018-12-30T08:14:26.784Z,83.78
2018-12-30T08:17:17.021Z,83.97
2018-12-30T08:20:06.779Z,83.83
2018-12-30T08:23:02.451Z,83.82
2018-12-30T08:25:55.919Z,83.81
2018-12-30T08:28:45.412Z,84.00
2018-12-30T08:31:35.997Z,83.96
2018-12-30T08:34:25.179Z,84.02
2018-12-30T08:40:20.725Z,83.82
2018-12-30T08:46:17.186Z,83.72
2018-12-30T08:49:06.119Z,83.68
2018-12-30T08:52:00.037Z,83.53
2018-12-30T08:54:50.437Z,83.43
2018-12-30T08:57:39.036Z,83.38
2018-12-30T09:00:27.518Z,83.22
2018-12-30T09:03:17.717Z,83.06
2018-12-30T09:06:05.824Z,81.23
2018-12-30T09:08:57.980Z,81.77
2018-12-30T09:11:51.253Z,79.78
2018-12-30T09:14:41.104Z,80.87
2018-12-30T09:17:29.800Z,81.48
2018-12-30T09:20:21.870Z,81.92
2018-12-30T09:23:10.703Z,82.24
2018-12-30T09:25:59.644Z,80.52
2018-12-30T09:29:00.893Z,79.35
2018-12-30T09:31:55.627Z,78.47
2018-12-30T09:34:45.845Z,77.82
2018-12-30T09:37:34.554Z,79.93
2018-12-30T09:40:31.494Z,81.11
2018-12-30T09:43:20.751Z,81.70
2018-12-30T09:46:11.572Z,81.97
2018-12-30T09:49:02.361Z,79.62
2018-12-30T09:51:53.396Z,78.18
2018-12-30T09:54:59.490Z,80.16
2018-12-30T09:57:48.268Z,81.06
2018-12-30T10:00:41.757Z,81.42
2018-12-30T10:03:32.508Z,81.56
2018-12-30T10:06:22.444Z,81.60
2018-12-30T10:09:12.548Z,81.64
2018-12-30T10:12:10.250Z,81.63
2018-12-30T10:15:02.067Z,81.64
2018-12-30T10:17:47.053Z,81.51
2018-12-30T10:20:34.388Z,81.47
2018-12-30T10:23:25.240Z,81.36
2018-12-30T10:26:21.310Z,81.42
2018-12-30T10:29:17.859Z,81.57
2018-12-30T10:32:05.192Z,81.63
2018-12-30T10:34:55.245Z,79.18
2018-12-30T10:37:44.047Z,80.54
2018-12-30T10:40:36.010Z,81.05
2018-12-30T10:43:24.216Z,81.26
2018-12-30T10:46:16.405Z,81.46
2018-12-30T10:49:07.192Z,78.62
2018-12-30T10:51:55.704Z,80.11
2018-12-30T10:54:45.150Z,80.84
2018-12-30T10:57:38.065Z,81.36
2018-12-30T11:00:26.975Z,81.69
2018-12-30T11:03:15.650Z,81.91
2018-12-30T11:09:16.802Z,82.08
2018-12-30T11:12:04.663Z,82.18
2018-12-30T11:14:52.801Z,82.25
2018-12-30T11:17:40.791Z,82.07
2018-12-30T11:20:30.597Z,82.15
2018-12-30T11:23:18.821Z,79.33
2018-12-30T11:26:06.683Z,80.23
2018-12-30T11:28:54.698Z,80.42
2018-12-30T11:31:46.019Z,80.47
2018-12-30T11:34:33.522Z,80.32
2018-12-30T11:37:29.563Z,80.28
2018-12-30T11:40:18.918Z,80.05
2018-12-30T11:46:24.287Z,79.83
2018-12-30T11:49:15.767Z,79.84
2018-12-30T11:52:03.227Z,79.57
2018-12-30T11:54:55.333Z,79.33
2018-12-30T11:57:44.584Z,78.77
2018-12-30T12:00:49.209Z,78.48
2018-12-30T12:03:37.868Z,78.15
2018-12-30T12:06:32.924Z,77.99
2018-12-30T12:09:22.335Z,77.61
2018-12-30T12:15:19.619Z,77.61
2018-12-30T12:18:08.866Z,77.60
2018-12-30T12:21:02.072Z,77.53
2018-12-30T12:23:51.430Z,75.04
2018-12-30T12:26:42.537Z,76.61
2018-12-30T12:29:36.227Z,77.02
2018-12-30T12:32:25.288Z,77.42
2018-12-30T12:35:15.293Z,77.41
2018-12-30T12:38:04.357Z,77.51
2018-12-30T12:40:55.005Z,75.11
2018-12-30T12:46:50.899Z,77.00
2018-12-30T12:49:39.811Z,76.92
2018-12-30T12:52:29.464Z,76.58
2018-12-30T12:55:18.706Z,76.89
2018-12-30T12:58:09.023Z,76.94
2018-12-30T13:01:07.258Z,76.99
2018-12-30T13:03:58.433Z,76.90
2018-12-30T13:06:47.576Z,76.63
2018-12-30T13:09:37.797Z,76.54
2018-12-30T13:12:36.352Z,76.89
2018-12-30T13:15:33.744Z,77.03
2018-12-30T13:18:26.692Z,77.00
2018-12-30T13:21:17.766Z,77.27
2018-12-30T13:24:05.301Z,77.30
2018-12-30T13:26:57.595Z,77.18
2018-12-30T13:32:57.592Z,75.94
2018-12-30T13:35:45.863Z,76.00
2018-12-30T13:41:45.713Z,75.00
2018-12-30T13:44:35.591Z,75.71
2018-12-30T13:47:24.493Z,76.23
2018-12-30T13:50:13.457Z,76.65
2018-12-30T13:53:05.940Z,76.92
2018-12-30T13:55:55.611Z,77.12
2018-12-30T13:58:43.754Z,77.32
2018-12-30T14:01:39.728Z,77.37
2018-12-30T14:07:33.851Z,77.47
2018-12-30T14:10:25.302Z,74.79
2018-12-30T14:13:19.658Z,76.31
2018-12-30T14:16:08.958Z,76.70
2018-12-30T14:18:58.163Z,76.74
2018-12-30T14:21:57.573Z,76.99
2018-12-30T14:24:55.174Z,77.17
2018-12-30T14:27:37.681Z,77.34
2018-12-30T14:30:26.888Z,77.44
2018-12-30T14:33:15.203Z,77.53
2018-12-30T14:36:04.259Z,77.57
2018-12-30T14:38:51.970Z,77.77
2018-12-30T14:41:42.854Z,77.95
2018-12-30T14:44:33.438Z,78.04
2018-12-30T14:47:23.057Z,75.88
2018-12-30T14:50:12.258Z,77.07
2018-12-30T14:53:06.680Z,77.61
2018-12-30T14:56:01.705Z,77.92
2018-12-30T14:58:55.820Z,78.09
2018-12-30T15:01:47.588Z,78.11
2018-12-30T15:04:38.749Z,78.02
2018-12-30T15:07:33.020Z,77.86
2018-12-30T15:10:22.275Z,77.70
2018-12-30T15:13:12.946Z,77.78
2018-12-30T15:16:05.949Z,77.73
2018-12-30T15:18:56.908Z,77.88
2018-12-30T15:21:45.263Z,78.01
2018-12-30T15:24:42.229Z,78.09
2018-12-30T15:27:30.072Z,78.25
2018-12-30T15:33:24.281Z,78.42
2018-12-30T15:36:13.687Z,78.50
2018-12-30T15:39:00.914Z,78.56
2018-12-30T15:41:48.248Z,78.61
2018-12-30T15:44:35.463Z,78.67
2018-12-30T15:47:22.581Z,78.71
2018-12-30T15:50:12.394Z,78.61
2018-12-30T15:53:01.596Z,78.54
2018-12-30T15:55:48.783Z,78.51
2018-12-30T15:58:36.936Z,78.38
2018-12-30T16:01:24.983Z,78.38
2018-12-30T16:04:15.052Z,78.30
2018-12-30T16:07:03.036Z,78.38
2018-12-30T16:09:50.531Z,78.42
2018-12-30T16:12:38.058Z,78.50
2018-12-30T16:15:25.861Z,78.44
2018-12-30T16:18:13.546Z,76.53
2018-12-30T16:21:04.800Z,77.64
2018-12-30T16:23:51.850Z,78.16
2018-12-30T16:26:40.127Z,78.34
2018-12-30T16:29:28.711Z,76.26
2018-12-30T16:32:18.134Z,75.12
2018-12-30T16:35:05.460Z,76.96
2018-12-30T16:37:53.517Z,75.12
2018-12-30T16:40:40.955Z,74.33
2018-12-30T16:43:28.492Z,76.29
2018-12-30T16:46:18.174Z,77.19
2018-12-30T16:49:05.438Z,77.70
2018-12-30T16:51:52.444Z,78.04
2018-12-30T16:54:39.515Z,78.23
2018-12-30T16:57:28.767Z,78.40
2018-12-30T17:00:19.780Z,78.50
2018-12-30T17:03:07.230Z,78.67
2018-12-30T17:05:54.307Z,78.79
2018-12-30T17:08:41.941Z,78.83
2018-12-30T17:11:30.172Z,78.79
2018-12-30T17:14:18.655Z,78.80
2018-12-30T17:17:06.518Z,78.86
2018-12-30T17:19:53.466Z,78.81
2018-12-30T17:22:41.191Z,78.78
2018-12-30T17:25:29.150Z,76.68
2018-12-30T17:28:17.851Z,77.71
2018-12-30T17:31:07.942Z,78.17
2018-12-30T17:33:54.926Z,76.09
2018-12-30T17:36:42.131Z,77.30
2018-12-30T17:39:51.693Z,77.82
2018-12-30T17:42:34.984Z,78.14
2018-12-30T17:45:22.109Z,78.40
2018-12-30T17:48:09.878Z,78.52
2018-12-30T17:50:58.150Z,78.60
2018-12-30T17:53:54.455Z,78.68
2018-12-30T17:56:41.657Z,78.75
2018-12-30T17:59:28.708Z,78.80
2018-12-30T18:02:16.851Z,76.86
2018-12-30T18:05:04.492Z,75.67
2018-12-30T18:07:54.331Z,77.25
2018-12-30T18:10:48.269Z,77.99
2018-12-30T18:13:33.090Z,78.43
2018-12-30T18:16:21.194Z,78.67
2018-12-30T18:19:10.001Z,78.85
2018-12-30T18:22:00.529Z,79.07
2018-12-30T18:24:56.767Z,79.23
2018-12-30T18:27:45.514Z,79.42
2018-12-30T18:30:37.569Z,79.47
2018-12-30T18:33:24.563Z,79.57
2018-12-30T18:36:15.823Z,79.71
2018-12-30T18:39:16.620Z,79.85
2018-12-30T18:42:03.857Z,80.00
2018-12-30T18:44:51.064Z,80.17
2018-12-30T18:47:38.754Z,80.25
2018-12-30T18:50:26.050Z,78.44
2018-12-30T18:53:13.900Z,79.45
2018-12-30T18:56:06.694Z,79.77
2018-12-30T18:58:54.642Z,80.13
2018-12-30T19:01:42.420Z,80.28
2018-12-30T19:04:29.973Z,80.50
2018-12-30T19:07:21.072Z,80.62
2018-12-30T19:10:08.064Z,80.78
2018-12-30T19:12:55.634Z,81.03
2018-12-30T19:15:43.057Z,81.22
2018-12-30T19:18:30.206Z,81.64
2018-12-30T19:21:18.951Z,81.95
2018-12-30T19:24:07.902Z,82.36
2018-12-30T19:26:58.894Z,82.50
2018-12-30T19:29:46.478Z,82.75
2018-12-30T19:32:35.519Z,82.85
2018-12-30T19:35:24.871Z,82.81
2018-12-30T19:38:13.592Z,82.89
2018-12-30T19:41:03.709Z,82.91
2018-12-30T19:43:52.117Z,83.08
2018-12-30T19:46:45.054Z,81.45
2018-12-30T19:49:36.598Z,82.38
2018-12-30T19:52:28.113Z,82.99
2018-12-30T19:58:34.781Z,83.58
2018-12-30T20:01:24.965Z,83.68
2018-12-30T20:04:21.802Z,83.75
2018-12-30T20:07:09.291Z,83.92
2018-12-30T20:10:10.195Z,84.01
2018-12-30T20:12:59.533Z,84.01
2018-12-30T20:15:48.318Z,84.04
2018-12-30T20:21:48.690Z,81.02
2018-12-30T20:24:40.435Z,82.22
2018-12-30T20:27:30.374Z,80.80
2018-12-30T20:30:20.757Z,82.12
2018-12-30T20:33:08.957Z,80.71
2018-12-30T20:35:56.668Z,81.92
2018-12-30T20:38:49.845Z,82.63
2018-12-30T20:41:43.462Z,83.08
2018-12-30T20:44:32.371Z,83.42
2018-12-30T20:47:23.341Z,83.90
2018-12-30T20:53:21.474Z,84.42
2018-12-30T20:56:09.047Z,84.79
2018-12-30T20:58:58.747Z,85.00
2018-12-30T21:01:46.360Z,84.86
2018-12-30T21:04:35.440Z,83.21
2018-12-30T21:07:23.236Z,83.89
2018-12-30T21:10:11.443Z,84.05
2018-12-30T21:13:04.735Z,84.01
2018-12-30T21:15:56.751Z,84.08
2018-12-30T21:18:44.460Z,84.11
2018-12-30T21:21:35.752Z,82.57
2018-12-30T21:24:30.079Z,83.43
2018-12-30T21:27:22.544Z,84.01
2018-12-30T21:36:32.521Z,84.68
2018-12-30T21:39:25.646Z,85.08
2018-12-30T21:42:15.399Z,85.32
2018-12-30T21:45:13.874Z,85.42
2018-12-30T21:48:01.544Z,85.62
2018-12-30T21:53:58.688Z,85.78
2018-12-30T21:56:54.803Z,86.02
2018-12-30T21:59:42.326Z,86.02
2018-12-30T22:02:41.150Z,86.04
2018-12-30T22:05:32.352Z,85.99
2018-12-30T22:08:19.942Z,86.11
2018-12-30T22:11:07.792Z,86.26
2018-12-30T22:13:57.149Z,86.20
2018-12-30T22:19:57.632Z,86.18
2018-12-30T22:22:46.735Z,86.14
2018-12-30T22:25:36.635Z,86.21
2018-12-30T22:28:24.562Z,86.09
2018-12-30T22:31:14.234Z,84.65
2018-12-30T22:34:18.763Z,85.12
2018-12-30T22:37:06.957Z,85.34
2018-12-30T22:39:56.637Z,85.49
2018-12-30T22:42:44.046Z,85.60
2018-12-30T22:45:32.132Z,84.10
2018-12-30T22:48:19.872Z,84.72
2018-12-30T22:51:08.687Z,85.02
2018-12-30T22:53:59.131Z,85.20
2018-12-30T22:56:47.786Z,85.29
2018-12-30T22:59:36.470Z,83.76
2018-12-30T23:02:26.014Z,82.67
2018-12-30T23:05:13.184Z,81.71
2018-12-30T23:08:00.466Z,81.01
2018-12-30T23:10:49.240Z,82.51
2018-12-30T23:13:37.851Z,81.30
2018-12-30T23:16:25.284Z,82.40
2018-12-30T23:19:13.385Z,81.14
2018-12-30T23:22:10.376Z,82.27
2018-12-30T23:24:57.709Z,82.94
2018-12-30T23:27:45.341Z,83.49
2018-12-30T23:30:33.316Z,83.72
2018-12-30T23:33:21.769Z,83.95
2018-12-30T23:36:08.095Z,84.28
2018-12-30T23:38:58.714Z,84.57
2018-12-30T23:41:56.481Z,83.00
2018-12-30T23:46:14.468Z,81.40
2018-12-30T23:49:04.278Z,80.68
2018-12-30T23:52:00.896Z,82.09
2018-12-30T23:54:43.953Z,82.93
2018-12-30T23:57:36.091Z,83.41
